Time;durP1;ratioP1;P1;durP2;ratioP2;P2;SDS_P1;SDS_P2;PMS_P1;PMS_P2;Temp;Humidity;BMP_temperature;BMP_pressure;BME280_temperature;BME280_humidity;BME280_pressure;Samples;Min_cycle;Max_cycle;Signal;HPM_P1;HPM_P2
2023/01/27 00:02:24;;;;;;;10.00;5.63;;;;;;;-2.82;90.25;101390.53;10398214;28;20038;-79
2023/01/27 00:07:25;;;;;;;11.07;5.00;;;;;;;-2.34;89.83;101460.66;10416680;28;20057;-79
2023/01/27 00:17:45;;;;;;;8.55;4.43;;;;;;;-2.63;90.41;101386.34;10407378;28;20057;-78
2023/01/27 00:28:07;;;;;;;9.90;4.45;;;;;;;-2.63;91.00;101382.88;10415997;28;20111;-78
2023/01/27 00:33:29;;;;;;;10.60;4.78;;;;;;;-2.21;90.60;101460.22;10411950;28;20433;-79
2023/01/27 00:38:33;;;;;;;8.93;4.57;;;;;;;-2.83;91.42;101371.47;10382181;28;20033;-78
2023/01/27 00:43:34;;;;;;;9.32;4.80;;;;;;;-2.58;90.94;101419.97;10373969;28;20141;-78
2023/01/27 00:48:35;;;;;;;12.10;5.32;;;;;;;-2.31;91.87;101480.53;10374346;28;20649;-78
2023/01/27 00:53:36;;;;;;;12.48;5.07;;;;;;;-2.42;91.51;101478.34;10373583;28;20042;-78
2023/01/27 00:58:37;;;;;;;12.27;5.10;;;;;;;-2.37;91.78;101488.56;10372218;28;20045;-78
2023/01/27 01:03:38;;;;;;;8.65;4.78;;;;;;;-2.47;92.31;101461.22;10373179;28;20477;-79
2023/01/27 01:08:39;;;;;;;13.32;5.25;;;;;;;-2.84;92.35;101407.91;10372513;28;20137;-78
2023/01/27 01:13:41;;;;;;;8.10;4.95;;;;;;;-2.65;92.06;101434.97;10372822;28;20037;-78
2023/01/27 01:18:42;;;;;;;11.18;5.03;;;;;;;-3.05;92.00;101384.44;10371118;28;20038;-78
2023/01/27 01:23:44;;;;;;;8.85;4.43;;;;;;;-2.64;92.44;101441.00;10372992;28;20042;-78
2023/01/27 01:28:45;;;;;;;8.98;4.22;;;;;;;-3.18;92.44;101340.72;10373509;28;20057;-78
2023/01/27 01:33:47;;;;;;;7.30;4.03;;;;;;;-2.57;92.40;101461.56;10372928;28;20046;-78
2023/01/27 01:38:48;;;;;;;8.60;4.05;;;;;;;-2.83;92.24;101407.03;10371860;28;20044;-78
2023/01/27 01:43:49;;;;;;;9.07;4.47;;;;;;;-2.47;92.82;101463.81;10372205;28;20063;-78
2023/01/27 01:49:00;;;;;;;8.13;3.65;;;;;;;-2.43;93.16;101454.97;10373967;28;20038;-77
2023/01/27 01:54:04;;;;;;;7.88;3.92;;;;;;;-2.41;92.59;101458.38;10380626;28;20407;-78
2023/01/27 01:59:09;;;;;;;7.03;3.77;;;;;;;-2.86;92.28;101384.59;10380138;28;20042;-78
2023/01/27 02:04:18;;;;;;;8.73;4.15;;;;;;;-2.55;92.56;101417.25;10380500;28;20047;-78
2023/01/27 02:09:21;;;;;;;7.80;3.92;;;;;;;-2.74;92.47;101388.50;10384806;28;20038;-78
2023/01/27 02:14:21;;;;;;;6.03;3.58;;;;;;;-2.57;92.52;101399.13;10411595;28;20556;-78
2023/01/27 02:19:40;;;;;;;8.20;3.72;;;;;;;-2.31;92.85;101424.13;10420706;28;20128;-78
2023/01/27 02:24:46;;;;;;;7.97;3.88;;;;;;;-2.50;92.76;101410.13;10393892;28;20142;-78
2023/01/27 02:29:47;;;;;;;5.82;3.47;;;;;;;-2.81;92.12;101354.06;10379703;28;20077;-77
2023/01/27 02:34:47;;;;;;;6.10;3.53;;;;;;;-2.66;92.60;101375.19;10378814;28;20124;-78
2023/01/27 02:39:51;;;;;;;7.32;3.55;;;;;;;-3.07;92.74;101303.03;10416916;28;20068;-77
2023/01/27 02:44:51;;;;;;;7.43;3.63;;;;;;;-2.40;92.50;101423.63;10417795;28;20064;-77
2023/01/27 02:49:53;;;;;;;7.07;3.92;;;;;;;-2.48;92.35;101400.53;10419577;28;20053;-78
2023/01/27 02:54:53;;;;;;;7.47;3.63;;;;;;;-2.36;92.19;101427.84;10418445;28;20033;-76
2023/01/27 02:59:54;;;;;;;14.13;3.20;;;;;;;-3.03;92.14;101314.16;10415194;28;20034;-78
2023/01/27 03:04:56;;;;;;;5.97;3.40;;;;;;;-2.25;92.70;101451.66;10413910;28;20037;-77
2023/01/27 03:09:57;;;;;;;7.15;3.70;;;;;;;-3.03;92.62;101319.38;10414455;28;20037;-77
2023/01/27 03:20:17;;;;;;;5.63;3.20;;;;;;;-2.70;92.16;101369.25;10418608;28;20045;-76
2023/01/27 03:25:18;;;;;;;5.57;3.05;;;;;;;-2.89;92.04;101363.91;10417419;28;20049;-76
2023/01/27 03:30:18;;;;;;;7.90;3.42;;;;;;;-2.85;92.76;101357.66;10417610;28;20041;-71
2023/01/27 03:35:22;;;;;;;5.93;3.30;;;;;;;-2.25;92.80;101453.44;10397766;28;20467;-71
2023/01/27 03:51:08;;;;;;;10.27;4.25;;;;;;;-2.17;92.92;101454.81;10458194;28;20496;-69
2023/01/27 03:56:08;;;;;;;6.18;3.38;;;;;;;-2.50;92.76;101391.91;10456108;28;20045;-72
2023/01/27 04:01:19;;;;;;;7.75;3.72;;;;;;;-2.50;93.05;101378.06;10456983;28;20033;-70
2023/01/27 04:11:54;;;;;;;7.03;3.45;;;;;;;-2.28;92.72;101424.91;10455920;28;20562;-70
2023/01/27 04:17:01;;;;;;;7.38;4.15;;;;;;;-2.13;93.10;101439.94;10456115;28;20057;-71
2023/01/27 04:22:03;;;;;;;5.93;3.60;;;;;;;-2.07;92.64;101450.94;10455766;28;20037;-74
2023/01/27 04:27:09;;;;;;;7.10;4.18;;;;;;;-2.16;92.99;101434.84;10456810;28;20633;-71
2023/01/27 04:32:12;;;;;;;6.25;3.88;;;;;;;-2.15;93.22;101434.81;10455880;28;20128;-73
2023/01/27 04:37:12;;;;;;;6.18;3.47;;;;;;;-2.68;93.17;101335.41;10448358;28;20064;-72
2023/01/27 04:42:13;;;;;;;6.65;3.60;;;;;;;-2.07;93.10;101437.09;10379444;28;20393;-74
2023/01/27 04:47:14;;;;;;;7.18;4.60;;;;;;;-2.14;92.71;101430.44;10376635;28;20576;-72
2023/01/27 04:52:15;;;;;;;7.20;4.13;;;;;;;-2.37;92.96;101390.53;10401569;28;20050;-72
2023/01/27 04:57:15;;;;;;;7.55;4.55;;;;;;;-1.84;92.77;101476.09;10373145;28;20047;-75
2023/01/27 05:02:16;;;;;;;14.52;3.78;;;;;;;-2.41;92.72;101378.56;10367224;28;20088;-74
2023/01/27 05:07:17;;;;;;;8.65;4.45;;;;;;;-1.78;92.94;101464.59;10368058;28;20045;-74
2023/01/27 05:12:17;;;;;;;10.25;4.53;;;;;;;-1.80;92.31;101453.38;10369319;28;20104;-74
2023/01/27 05:17:19;;;;;;;8.35;4.03;;;;;;;-1.72;92.23;101446.09;10372673;28;20042;-74
2023/01/27 05:22:19;;;;;;;12.82;3.75;;;;;;;-1.49;92.66;101473.84;10373263;28;20046;-74
2023/01/27 05:27:20;;;;;;;10.15;4.65;;;;;;;-1.43;92.04;101465.75;10371719;28;20095;-74
2023/01/27 05:32:21;;;;;;;7.25;4.25;;;;;;;-1.76;92.04;101409.84;10372012;28;20099;-74
2023/01/27 05:37:22;;;;;;;9.70;4.43;;;;;;;-1.75;91.62;101396.72;10372189;28;20041;-73
2023/01/27 05:42:22;;;;;;;7.53;4.07;;;;;;;-1.41;91.52;101435.28;10372014;28;20548;-72
2023/01/27 05:47:24;;;;;;;6.90;4.28;;;;;;;-1.53;92.01;101414.06;10372239;28;20050;-72
2023/01/27 05:52:25;;;;;;;7.60;4.45;;;;;;;-1.11;91.77;101473.13;10372242;28;20456;-72
2023/01/27 05:57:26;;;;;;;7.25;4.05;;;;;;;-1.57;91.37;101383.84;10372069;28;20050;-73
2023/01/27 06:02:27;;;;;;;9.18;4.82;;;;;;;-1.05;90.99;101467.66;10371635;28;20074;-72
2023/01/27 06:07:27;;;;;;;9.05;4.75;;;;;;;-1.09;91.90;101473.91;10371806;28;20095;-72
2023/01/27 06:12:28;;;;;;;10.82;5.10;;;;;;;-1.52;91.36;101407.97;10371761;28;20088;-74
2023/01/27 06:17:29;;;;;;;14.55;6.38;;;;;;;-1.42;91.27;101456.19;10371778;28;20050;-72
2023/01/27 06:22:29;;;;;;;13.40;5.75;;;;;;;-2.45;91.78;101278.13;10371128;28;20038;-75
2023/01/27 06:27:30;;;;;;;15.57;7.80;;;;;;;-1.56;91.76;101435.91;10370948;28;20111;-72
2023/01/27 06:32:31;;;;;;;13.68;7.75;;;;;;;-1.95;92.00;101378.47;10371764;28;20038;-73
2023/01/27 06:37:32;;;;;;;16.85;8.50;;;;;;;-2.08;91.86;101357.31;10375154;28;20048;-72
2023/01/27 06:42:32;;;;;;;15.13;8.35;;;;;;;-1.55;91.58;101449.78;10378979;28;20412;-75
2023/01/27 06:47:33;;;;;;;17.55;8.82;;;;;;;-1.76;92.11;101415.91;10379085;28;20046;-74
2023/01/27 06:52:34;;;;;;;16.88;8.98;;;;;;;-1.58;91.89;101442.09;10377687;28;20048;-74
2023/01/27 06:57:35;;;;;;;14.18;8.27;;;;;;;-1.77;92.21;101398.53;10378651;28;20052;-74
2023/01/27 07:02:35;;;;;;;18.40;8.88;;;;;;;-2.22;91.70;101328.38;10377345;28;20096;-74
2023/01/27 07:07:37;;;;;;;17.15;9.30;;;;;;;-1.59;91.69;101438.63;10377672;28;20067;-74
2023/01/27 07:12:38;;;;;;;17.40;8.48;;;;;;;-1.86;91.10;101384.13;10377528;28;20038;-74
2023/01/27 07:17:39;;;;;;;16.08;7.95;;;;;;;-1.72;90.81;101401.81;10377428;28;20402;-74
2023/01/27 07:22:40;;;;;;;15.43;8.30;;;;;;;-1.59;90.20;101423.00;10376534;28;20041;-74
2023/01/27 07:27:40;;;;;;;15.98;8.50;;;;;;;-1.62;90.50;101402.28;10377160;28;20045;-74
2023/01/27 07:32:41;;;;;;;13.93;8.85;;;;;;;-1.56;90.34;101394.19;10376643;28;20128;-74
2023/01/27 07:37:42;;;;;;;15.23;7.85;;;;;;;-1.30;90.25;101407.91;10376747;28;20164;-74
2023/01/27 07:42:42;;;;;;;18.02;9.13;;;;;;;-1.21;89.96;101389.25;10376165;28;20152;-74
2023/01/27 07:47:43;;;;;;;17.33;9.50;;;;;;;-0.99;89.18;101392.63;10375801;28;20042;-74
2023/01/27 07:52:44;;;;;;;16.88;10.25;;;;;;;-1.24;88.48;101335.47;10374213;28;20038;-74
2023/01/27 07:57:45;;;;;;;22.23;12.57;;;;;;;-0.77;88.86;101379.44;10375138;28;20050;-74
2023/01/27 08:02:50;;;;;;;18.80;11.23;;;;;;;-0.80;88.03;101344.84;10374914;28;20041;-74
2023/01/27 08:07:52;;;;;;;22.38;12.00;;;;;;;-0.60;88.20;101356.94;10375646;28;20077;-74
2023/01/27 08:12:53;;;;;;;19.02;11.15;;;;;;;-0.58;87.97;101340.28;10375165;28;20116;-75
2023/01/27 08:17:55;;;;;;;25.33;11.80;;;;;;;-0.47;87.36;101345.84;10374255;28;20045;-74
2023/01/27 08:22:56;;;;;;;21.40;11.65;;;;;;;-0.67;86.69;101288.53;10374166;28;20049;-74
2023/01/27 08:27:56;;;;;;;20.40;12.35;;;;;;;-0.28;86.62;101340.59;10373460;28;20096;-74
2023/01/27 08:32:57;;;;;;;18.90;11.50;;;;;;;-0.12;86.21;101318.94;10375178;28;20482;-74
2023/01/27 08:37:58;;;;;;;16.25;9.98;;;;;;;-0.15;85.40;101299.09;10373631;28;20038;-74
2023/01/27 08:43:00;;;;;;;20.23;10.43;;;;;;;-0.66;85.20;101190.22;10373161;28;20087;-75
2023/01/27 08:48:03;;;;;;;17.65;9.95;;;;;;;-0.06;85.17;101249.00;10373930;28;20048;-74
2023/01/27 08:53:04;;;;;;;19.40;10.50;;;;;;;-0.09;84.72;101233.47;10374312;28;20382;-75
2023/01/27 08:58:04;;;;;;;16.75;8.27;;;;;;;0.46;84.88;101289.88;10373133;28;20209;-75
2023/01/27 09:03:05;;;;;;;12.38;7.65;;;;;;;0.27;84.16;101226.41;10372773;28;20046;-75
2023/01/27 09:08:07;;;;;;;13.23;7.18;;;;;;;0.62;83.89;101258.53;10373083;28;20041;-75
2023/01/27 09:13:08;;;;;;;11.00;6.90;;;;;;;0.48;82.64;101207.00;10373651;28;20045;-75
2023/01/27 09:18:09;;;;;;;11.13;6.03;;;;;;;0.83;82.54;101233.00;10373093;28;20451;-75
2023/01/27 09:23:10;;;;;;;9.63;5.07;;;;;;;0.47;81.88;101141.72;10372165;28;20052;-76
2023/01/27 09:28:15;;;;;;;10.75;6.03;;;;;;;1.12;81.46;101213.09;10373194;28;20042;-76
2023/01/27 09:33:16;;;;;;;12.93;6.32;;;;;;;1.20;81.37;101176.00;10372547;28;20505;-76
2023/01/27 09:38:20;;;;;;;13.02;5.95;;;;;;;1.44;81.11;101181.63;10372118;28;20099;-77
2023/01/27 09:43:41;;;;;;;12.40;6.75;;;;;;;1.44;80.72;101194.72;10372293;28;20054;-74
2023/01/27 09:48:52;;;;;;;11.43;6.15;;;;;;;1.32;80.98;101162.25;10372715;28;20052;-75
2023/01/27 09:54:19;;;;;;;9.30;5.35;;;;;;;1.55;80.62;101189.69;10371743;28;20042;-75
2023/01/27 09:59:29;;;;;;;11.25;6.10;;;;;;;1.65;80.50;101177.75;10374266;28;20049;-76
2023/01/27 10:04:56;;;;;;;11.52;5.72;;;;;;;1.78;80.18;101170.84;10372651;28;20038;-75
2023/01/27 10:10:15;;;;;;;9.15;5.85;;;;;;;1.88;80.19;101167.69;10375457;28;20053;-75
2023/01/27 10:15:19;;;;;;;14.15;5.70;;;;;;;1.41;80.00;101093.63;10379982;28;20045;-75
2023/01/27 10:20:38;;;;;;;9.87;5.43;;;;;;;1.61;80.11;101123.84;10380089;28;20042;-75
2023/01/27 10:25:53;;;;;;;11.93;6.40;;;;;;;1.23;79.82;101053.69;10379535;28;20756;-75
2023/01/27 10:30:58;;;;;;;9.45;5.47;;;;;;;1.36;79.46;101091.28;10378944;28;20045;-75
2023/01/27 10:36:18;;;;;;;10.27;4.88;;;;;;;1.82;79.73;101180.22;10379312;28;20066;-75
2023/01/27 10:41:44;;;;;;;8.80;4.65;;;;;;;1.68;79.36;101168.88;10379305;28;20514;-75
2023/01/27 10:47:11;;;;;;;7.95;4.55;;;;;;;1.05;79.73;101091.41;10379000;28;20064;-76
2023/01/27 10:52:20;;;;;;;9.80;4.63;;;;;;;1.42;80.52;101178.25;10378586;28;20093;-76
2023/01/27 10:57:26;;;;;;;7.57;4.35;;;;;;;1.27;80.30;101175.56;10378930;28;20049;-76
2023/01/27 11:03:00;;;;;;;9.38;4.65;;;;;;;1.22;80.48;101176.78;10378433;28;20121;-75
2023/01/27 11:08:07;;;;;;;9.38;3.70;;;;;;;0.78;80.22;101131.28;10377927;28;20091;-76
2023/01/27 11:13:13;;;;;;;8.07;3.67;;;;;;;0.81;80.67;101138.09;10378086;28;20050;-75
2023/01/27 11:18:25;;;;;;;5.90;3.17;;;;;;;0.93;80.41;101181.03;10377105;28;20037;-76
2023/01/27 11:23:33;;;;;;;9.20;3.30;;;;;;;0.59;79.93;101133.22;10376532;28;20056;-76
2023/01/27 11:28:41;;;;;;;7.30;2.53;;;;;;;1.05;79.93;101186.44;10377364;28;20112;-76
2023/01/27 11:33:56;;;;;;;5.18;2.83;;;;;;;1.15;79.62;101176.28;10376752;28;20048;-77
2023/01/27 11:38:57;;;;;;;7.63;2.65;;;;;;;1.19;79.64;101169.09;10379960;28;20409;-77
2023/01/27 11:44:06;;;;;;;6.78;2.78;;;;;;;0.78;79.14;101084.19;10388935;28;20157;-77
2023/01/27 11:49:08;;;;;;;6.60;2.63;;;;;;;1.40;79.00;101161.78;10371369;28;20057;-75
2023/01/27 11:54:24;;;;;;;4.18;2.17;;;;;;;1.47;79.27;101178.84;10374078;28;20406;-75
2023/01/27 11:59:29;;;;;;;5.03;2.50;;;;;;;1.55;79.12;101163.50;10383453;28;20034;-77
2023/01/27 12:04:51;;;;;;;3.63;2.22;;;;;;;1.27;78.80;101076.13;10393553;28;20037;-77
2023/01/27 12:09:52;;;;;;;5.78;2.42;;;;;;;1.72;78.56;101126.69;10388470;28;20512;-76
2023/01/27 12:14:59;;;;;;;7.30;2.85;;;;;;;2.04;78.09;101165.84;10403964;28;20049;-77
2023/01/27 12:20:05;;;;;;;5.40;3.00;;;;;;;2.13;77.87;101153.94;10403518;28;20048;-79
2023/01/27 12:25:14;;;;;;;11.30;4.05;;;;;;;2.11;77.67;101134.84;10404089;28;20053;-80
2023/01/27 12:30:22;;;;;;;9.07;2.47;;;;;;;1.91;77.73;101113.31;10404840;28;20044;-78
2023/01/27 12:35:33;;;;;;;5.70;2.70;;;;;;;2.08;77.75;101091.31;10396696;28;20041;-78
2023/01/27 12:40:33;;;;;;;7.47;2.67;;;;;;;2.31;76.88;101078.56;10390314;28;20037;-79
2023/01/27 12:45:36;;;;;;;4.93;2.50;;;;;;;2.10;76.03;101037.03;10394935;28;20057;-80
2023/01/27 12:50:39;;;;;;;4.80;2.80;;;;;;;2.63;76.23;101156.06;10400147;28;20048;-79
2023/01/27 12:55:45;;;;;;;5.95;3.08;;;;;;;2.26;76.65;101120.78;10410063;28;20068;-79
2023/01/27 13:00:46;;;;;;;6.82;3.38;;;;;;;2.04;77.71;101129.16;10390117;28;20049;-81
2023/01/27 13:05:51;;;;;;;6.53;2.58;;;;;;;1.97;78.14;101149.63;10392339;28;20462;-80
2023/01/27 13:10:58;;;;;;;6.50;2.40;;;;;;;1.57;78.31;101106.66;10392487;28;20446;-81
2023/01/27 13:16:16;;;;;;;4.35;2.10;;;;;;;1.70;78.53;101136.41;10413425;28;20073;-81
2023/01/27 13:21:20;;;;;;;10.90;2.78;;;;;;;1.53;78.60;101131.34;10407124;28;20517;-81
2023/01/27 13:26:29;;;;;;;5.28;2.38;;;;;;;1.46;79.13;101117.75;10389339;28;20095;-80
2023/01/27 13:31:36;;;;;;;8.75;2.95;;;;;;;1.48;79.25;101125.53;10391657;28;20037;-80
2023/01/27 13:36:39;;;;;;;6.15;2.92;;;;;;;1.44;79.35;101122.25;10389959;28;20048;-81
2023/01/27 13:41:48;;;;;;;9.90;2.80;;;;;;;1.28;79.44;101111.81;10393094;28;20050;-81
2023/01/27 13:46:50;;;;;;;5.68;2.55;;;;;;;1.07;79.54;101103.44;10408859;28;20057;-80
2023/01/27 13:51:51;;;;;;;9.63;3.38;;;;;;;1.02;80.25;101122.97;10400891;28;20041;-79
2023/01/27 13:57:09;;;;;;;21.08;4.05;;;;;;;0.98;80.32;101135.34;10378513;28;20041;-81
2023/01/27 14:02:47;;;;;;;22.70;4.28;;;;;;;0.73;80.34;101117.59;10412845;28;20042;-81
2023/01/27 14:08:01;;;;;;;16.40;4.22;;;;;;;0.55;80.44;101118.63;10398133;28;20524;-80
2023/01/27 14:13:18;;;;;;;10.10;3.47;;;;;;;-0.18;80.76;101042.44;10396381;28;20049;-78
2023/01/27 14:18:21;;;;;;;18.02;4.45;;;;;;;0.07;81.13;101121.19;10412639;28;20084;-79
2023/01/27 14:23:48;;;;;;;19.52;4.97;;;;;;;-0.11;81.04;101109.97;10400906;28;20528;-78
2023/01/27 14:29:06;;;;;;;40.97;7.07;;;;;;;-0.37;81.62;101134.81;10381850;28;20069;-78
2023/01/27 14:34:37;;;;;;;13.82;4.70;;;;;;;-0.62;82.15;101113.50;10386810;28;20040;-77
2023/01/27 14:39:43;;;;;;;18.73;4.85;;;;;;;-1.51;82.29;100982.31;10390601;28;20061;-76
2023/01/27 14:45:22;;;;;;;10.13;4.03;;;;;;;-0.69;82.79;101118.16;10390337;28;20053;-77
2023/01/27 14:50:29;;;;;;;95.00;29.65;;;;;;;-0.71;83.11;101114.78;10390402;28;20116;-77
2023/01/27 14:56:02;;;;;;;31.70;11.63;;;;;;;-1.64;82.47;100964.69;10390175;28;20038;-77
2023/01/27 15:01:25;;;;;;;20.45;5.78;;;;;;;-1.12;82.61;101064.69;10398511;28;20041;-74
2023/01/27 15:06:52;;;;;;;17.95;5.28;;;;;;;-0.83;83.28;101099.75;10397707;28;20501;-74
2023/01/27 15:12:20;;;;;;;11.15;4.25;;;;;;;-0.95;82.68;101099.44;10377645;28;20057;-74
2023/01/27 15:17:29;;;;;;;9.80;3.08;;;;;;;-1.03;82.64;101104.19;10377404;28;20374;-75
2023/01/27 15:22:46;;;;;;;6.22;2.15;;;;;;;-1.17;82.45;101130.94;10375428;28;20072;-73
2023/01/27 15:27:52;;;;;;;7.85;2.40;;;;;;;-1.53;82.75;101102.22;10376743;28;20046;-73
2023/01/27 15:32:53;;;;;;;3.63;1.60;;;;;;;-1.48;82.89;101102.03;10376622;28;20128;-73
2023/01/27 15:37:58;;;;;;;13.18;2.05;;;;;;;-1.47;83.63;101049.81;10390238;28;20092;-74
2023/01/27 15:43:05;;;;;;;3.50;1.85;;;;;;;-0.82;82.68;101130.13;10403347;28;20069;-73
2023/01/27 15:48:10;;;;;;;6.03;2.20;;;;;;;-0.79;82.34;101129.97;10382376;28;20054;-74
2023/01/27 15:53:29;;;;;;;5.43;2.33;;;;;;;-0.81;83.01;101123.97;10387370;28;20049;-72
2023/01/27 15:58:34;;;;;;;4.97;2.20;;;;;;;-0.95;82.79;101128.13;10375087;28;20088;-73
2023/01/27 16:03:42;;;;;;;3.95;1.55;;;;;;;-1.10;82.47;101134.09;10410019;28;20077;-71
2023/01/27 16:08:49;;;;;;;7.90;2.08;;;;;;;-1.64;82.51;101050.66;10416209;28;20091;-71
2023/01/27 16:13:51;;;;;;;8.20;2.22;;;;;;;-1.52;83.22;101101.34;10414106;28;20099;-73
2023/01/27 16:18:57;;;;;;;8.23;2.00;;;;;;;-1.56;83.23;101125.81;10407330;28;20041;-75
2023/01/27 16:24:02;;;;;;;8.27;1.98;;;;;;;-1.69;83.80;101115.13;10384169;28;20088;-79
2023/01/27 16:29:22;;;;;;;7.97;2.08;;;;;;;-1.50;83.55;101124.69;10389633;28;20430;-77
2023/01/27 16:34:30;;;;;;;11.02;2.53;;;;;;;-1.54;83.44;101105.75;10389931;28;20099;-78
2023/01/27 16:39:42;;;;;;;5.22;2.15;;;;;;;-1.28;83.40;101120.19;10407260;28;20041;-76
2023/01/27 16:44:49;;;;;;;4.72;2.08;;;;;;;-1.38;83.23;101096.31;10399239;28;20137;-77
2023/01/27 16:49:52;;;;;;;4.43;1.83;;;;;;;-1.50;83.00;101086.44;10368302;28;20490;-77
2023/01/27 16:54:54;;;;;;;3.92;1.95;;;;;;;-1.67;83.26;101086.41;10378353;28;20091;-77
2023/01/27 16:59:58;;;;;;;11.15;2.50;;;;;;;-2.70;83.80;100953.13;10391372;28;20057;-76
2023/01/27 17:05:00;;;;;;;;;;;;;;;-1.84;83.89;101095.00;10381842;28;20041;-77
2023/01/27 17:10:12;;;;;;;4.90;2.05;;;;;;;-2.42;84.88;101022.13;10381123;28;19994;-76
2023/01/27 17:15:29;;;;;;;7.75;1.58;;;;;;;-1.88;84.70;101096.91;10393618;28;20041;-76
2023/01/27 17:20:33;;;;;;;6.13;2.05;;;;;;;-2.46;84.16;101008.41;10376575;28;20038;-76
2023/01/27 17:25:38;;;;;;;5.20;2.20;;;;;;;-2.03;84.42;101100.22;10380726;28;20050;-75
2023/01/27 17:30:40;;;;;;;11.30;2.30;;;;;;;-2.47;83.95;101053.56;10372657;28;20037;-75
2023/01/27 17:35:47;;;;;;;9.25;2.30;;;;;;;-2.74;84.10;101010.56;10376015;28;20037;-75
2023/01/27 17:40:51;;;;;;;6.70;2.42;;;;;;;-2.49;84.53;101050.19;10412656;28;20562;-75
2023/01/27 17:46:12;;;;;;;9.98;3.25;;;;;;;-2.36;84.37;101068.72;10413436;28;20148;-75
2023/01/27 17:51:17;;;;;;;5.15;2.78;;;;;;;-3.16;84.65;100970.75;10413090;28;20085;-75
2023/01/27 17:56:27;;;;;;;9.80;2.83;;;;;;;-2.88;85.32;101032.78;10411045;28;20037;-75
2023/01/27 18:01:29;;;;;;;7.72;2.35;;;;;;;-3.29;85.01;100954.84;10413593;28;20444;-75
2023/01/27 18:06:29;;;;;;;5.30;2.78;;;;;;;-2.78;86.09;101034.09;10412683;28;20390;-74
2023/01/27 18:11:32;;;;;;;5.85;2.45;;;;;;;-3.05;85.63;100991.06;10385945;28;20034;-74
2023/01/27 18:16:34;;;;;;;5.38;2.65;;;;;;;-2.91;85.95;100986.13;10400377;28;20041;-75
2023/01/27 18:21:35;;;;;;;7.35;2.80;;;;;;;-2.69;86.41;101019.00;10412648;28;20033;-74
2023/01/27 18:26:36;;;;;;;10.77;2.90;;;;;;;-2.64;86.50;101025.69;10410847;28;20060;-74
2023/01/27 18:31:44;;;;;;;8.63;3.03;;;;;;;-2.77;87.27;100991.56;10412775;28;20056;-74
2023/01/27 18:36:56;;;;;;;6.32;2.60;;;;;;;-2.73;87.54;100981.03;10408904;28;20061;-74
2023/01/27 18:41:57;;;;;;;9.63;3.08;;;;;;;-2.91;87.20;100967.09;10419209;28;20037;-76
2023/01/27 18:47:20;;;;;;;7.40;3.58;;;;;;;-2.86;88.28;100967.72;10419919;28;20056;-73
2023/01/27 18:52:22;;;;;;;11.05;3.70;;;;;;;-2.78;87.65;100984.69;10403995;28;20044;-74
2023/01/27 18:57:23;;;;;;;7.18;4.18;;;;;;;-3.18;87.87;100892.00;10397709;28;20128;-74
2023/01/27 19:02:24;;;;;;;6.20;3.50;;;;;;;-2.78;88.09;100937.06;10414819;28;20121;-74
2023/01/27 19:07:25;;;;;;;9.70;4.13;;;;;;;-2.33;88.62;100998.31;10377192;28;20209;-74
2023/01/27 19:12:26;;;;;;;9.60;4.43;;;;;;;-2.36;88.40;100977.66;10376596;28;20205;-74
2023/01/27 19:17:28;;;;;;;11.07;4.53;;;;;;;-2.16;88.69;100977.56;10406375;28;20124;-74
2023/01/27 19:22:29;;;;;;;11.55;4.95;;;;;;;-2.53;88.71;100900.34;10418949;28;20497;-75
2023/01/27 19:27:29;;;;;;;10.23;3.72;;;;;;;-2.71;88.75;100850.03;10418463;28;20087;-74
2023/01/27 19:32:30;;;;;;;8.95;4.70;;;;;;;-1.91;88.95;100956.44;10389759;28;20403;-74
2023/01/27 19:37:31;;;;;;;14.52;4.53;;;;;;;-2.76;89.47;100803.44;10376683;28;20033;-75
2023/01/27 19:42:32;;;;;;;10.63;5.45;;;;;;;-1.92;89.46;100925.25;10375978;28;20084;-74
2023/01/27 19:47:33;;;;;;;9.35;4.75;;;;;;;-1.56;90.15;100969.50;10376351;28;20383;-75
2023/01/27 19:52:34;;;;;;;10.32;5.25;;;;;;;-1.76;89.22;100915.78;10375491;28;20045;-74
2023/01/27 19:57:35;;;;;;;12.23;5.25;;;;;;;-1.41;90.33;100971.38;10379349;28;20073;-75
2023/01/27 20:02:36;;;;;;;12.25;5.05;;;;;;;-1.32;90.06;100956.16;10383748;28;20117;-75
2023/01/27 20:07:37;;;;;;;10.90;5.10;;;;;;;-1.69;90.35;100865.06;10375729;28;20144;-75
2023/01/27 20:12:38;;;;;;;12.35;5.35;;;;;;;-1.09;90.49;100941.97;10375168;28;20041;-75
2023/01/27 20:17:39;;;;;;;14.32;5.55;;;;;;;-2.03;90.40;100772.19;10374604;28;20042;-75
2023/01/27 20:22:40;;;;;;;9.35;4.82;;;;;;;-1.15;90.45;100917.06;10374677;28;20069;-75
2023/01/27 20:27:42;;;;;;;10.02;4.90;;;;;;;-1.05;90.45;100933.91;10374906;28;20045;-76
2023/01/27 20:32:43;;;;;;;9.57;4.88;;;;;;;-0.94;91.31;100931.59;10374110;28;20108;-76
2023/01/27 20:37:49;;;;;;;15.05;5.13;;;;;;;-1.01;92.66;100908.53;10394098;28;20077;-75
2023/01/27 20:42:50;;;;;;;13.88;5.53;;;;;;;-0.79;92.05;100948.22;10415480;28;20080;-75
2023/01/27 20:47:53;;;;;;;10.65;4.72;;;;;;;-0.76;92.33;100940.22;10414520;28;20049;-75
2023/01/27 20:52:53;;;;;;;10.98;4.72;;;;;;;-0.72;92.38;100936.53;10415283;28;20045;-75
2023/01/27 20:57:54;;;;;;;10.63;4.55;;;;;;;-1.69;91.83;100765.25;10413398;28;20052;-76
2023/01/27 21:02:56;;;;;;;14.07;5.63;;;;;;;-1.00;92.39;100873.72;10414746;28;20053;-76
2023/01/27 21:07:57;;;;;;;10.18;5.05;;;;;;;-0.65;92.83;100917.94;10414818;28;20041;-75
2023/01/27 21:12:57;;;;;;;11.25;4.93;;;;;;;-0.74;92.97;100896.63;10412862;28;20048;-77
2023/01/27 21:17:58;;;;;;;9.70;4.90;;;;;;;-0.53;92.92;100922.50;10413969;28;20037;-76
2023/01/27 21:22:59;;;;;;;9.27;5.30;;;;;;;-0.52;92.86;100905.91;10412960;28;20042;-76
2023/01/27 21:28:00;;;;;;;9.38;5.35;;;;;;;-0.84;93.07;100847.63;10413799;28;20063;-76
2023/01/27 21:33:01;;;;;;;14.80;5.28;;;;;;;-0.66;93.77;100862.28;10412180;28;20052;-76
2023/01/27 21:38:02;;;;;;;8.50;4.85;;;;;;;-0.67;92.98;100860.63;10413640;28;20045;-76
2023/01/27 21:48:22;;;;;;;10.45;5.13;;;;;;;-0.56;93.09;100870.47;10413047;28;20127;-76
2023/01/27 21:53:23;;;;;;;11.40;6.00;;;;;;;-0.85;93.29;100822.50;10413524;28;20045;-76
2023/01/27 21:58:23;;;;;;;10.40;4.97;;;;;;;-0.92;93.62;100811.56;10412949;28;20040;-76
2023/01/27 22:03:24;;;;;;;10.77;4.28;;;;;;;-0.78;93.30;100826.44;10412489;28;20525;-76
2023/01/27 22:08:25;;;;;;;11.98;4.97;;;;;;;-0.78;94.39;100832.53;10417878;28;20042;-76
2023/01/27 22:13:26;;;;;;;11.57;5.15;;;;;;;-0.46;94.70;100876.88;10421406;28;20126;-76
2023/01/27 22:18:27;;;;;;;11.75;5.78;;;;;;;-0.50;94.44;100884.03;10420077;28;20136;-76
2023/01/27 22:23:28;;;;;;;13.82;5.68;;;;;;;-0.58;95.18;100854.06;10420996;28;20045;-78
2023/01/27 22:28:29;;;;;;;9.68;5.30;;;;;;;-1.23;95.01;100742.78;10419606;28;20080;-76
2023/01/27 22:33:30;;;;;;;8.93;5.15;;;;;;;-0.54;95.57;100848.59;10419618;28;20064;-76
2023/01/27 22:38:36;;;;;;;10.95;5.35;;;;;;;-0.46;96.19;100856.00;10420123;28;20069;-76
2023/01/27 22:43:37;;;;;;;13.25;6.18;;;;;;;-0.69;95.42;100818.09;10419523;28;20549;-77
2023/01/27 22:48:37;;;;;;;13.57;6.20;;;;;;;-0.84;95.92;100787.66;10420590;28;20136;-76
2023/01/27 22:53:38;;;;;;;17.35;6.00;;;;;;;-1.46;97.44;100683.28;10419885;28;20045;-76
2023/01/27 22:58:39;;;;;;;11.70;6.40;;;;;;;-0.75;97.36;100792.34;10419350;28;20061;-77
2023/01/27 23:03:39;;;;;;;13.32;6.13;;;;;;;-0.64;96.94;100808.25;10419114;28;20046;-76
2023/01/27 23:08:40;;;;;;;15.88;6.72;;;;;;;-0.71;97.36;100794.72;10418742;28;20048;-77
2023/01/27 23:13:41;;;;;;;18.67;6.82;;;;;;;-0.48;97.61;100816.94;10418618;28;20511;-76
2023/01/27 23:18:42;;;;;;;21.42;7.40;;;;;;;-0.66;96.79;100791.00;10417140;28;20479;-76
2023/01/27 23:23:42;;;;;;;15.85;6.85;;;;;;;-1.05;97.09;100727.91;10417714;28;20073;-77
2023/01/27 23:28:43;;;;;;;13.50;6.93;;;;;;;-0.44;97.50;100814.16;10416491;28;20037;-78
2023/01/27 23:33:44;;;;;;;14.35;7.07;;;;;;;-0.56;98.69;100805.25;10417453;28;20501;-76
2023/01/27 23:38:46;;;;;;;14.43;7.60;;;;;;;-0.80;98.73;100765.72;10417806;28;20045;-76
2023/01/27 23:43:51;;;;;;;18.42;8.23;;;;;;;-0.55;98.73;100791.25;10416438;28;20057;-76
2023/01/27 23:48:54;;;;;;;16.35;6.90;;;;;;;-0.59;98.94;100785.38;10417869;28;20393;-77
2023/01/27 23:53:54;;;;;;;17.90;8.38;;;;;;;-0.92;98.62;100735.94;10416842;28;20099;-76